Time;durP1;ratioP1;P1;durP2;ratioP2;P2;SDS_P1;SDS_P2;PMS_P1;PMS_P2;Temp;Humidity;BMP_temperature;BMP_pressure;BME280_temperature;BME280_humidity;BME280_pressure;Samples;Min_cycle;Max_cycle;Signal;HPM_P1;HPM_P2
2021/10/21 00:01:55;;;;;;;4.22;2.78;;;16.00;99.90;;;16.99;91.52;98153.34;6101317;23;20062;-81
2021/10/21 00:04:21;;;;;;;4.22;2.95;;;16.00;99.90;;;16.92;92.62;98135.94;6100958;23;20022;-83
2021/10/21 00:06:47;;;;;;;4.68;3.10;;;16.00;99.90;;;16.93;92.23;98135.47;6101831;23;20010;-80
2021/10/21 00:09:13;;;;;;;7.38;2.97;;;16.00;99.90;;;16.92;92.63;98113.38;6075439;23;20021;-85
2021/10/21 00:11:39;;;;;;;7.18;2.78;;;16.00;99.90;;;16.94;92.27;98108.84;6100230;23;20010;-80
2021/10/21 00:14:05;;;;;;;5.80;2.88;;;16.00;99.90;;;17.00;92.51;98094.94;6101698;23;20030;-81
2021/10/21 00:16:33;;;;;;;5.55;3.10;;;16.00;99.90;;;16.92;92.28;98071.84;6101553;23;20006;-81
2021/10/21 00:18:59;;;;;;;7.05;3.20;;;16.00;99.90;;;16.91;92.77;98063.88;6076306;23;20077;-83
2021/10/21 00:21:25;;;;;;;6.18;3.22;;;16.00;99.90;;;16.89;93.06;98055.88;6075976;23;20354;-81
2021/10/21 00:23:51;;;;;;;5.65;3.03;;;15.90;99.90;;;16.85;93.43;98038.34;6101447;23;20022;-82
2021/10/21 00:26:17;;;;;;;4.63;2.42;;;15.90;99.90;;;16.92;93.34;98060.56;6101848;23;20006;-82
2021/10/21 00:28:43;;;;;;;5.90;2.90;;;15.90;99.90;;;17.03;92.64;98046.06;6100587;23;20015;-81
2021/10/21 00:31:09;;;;;;;6.03;2.40;;;16.00;99.90;;;16.99;93.25;98031.31;6076247;23;20021;-80
2021/10/21 00:33:37;;;;;;;6.65;2.75;;;16.00;99.90;;;16.97;95.19;98045.09;6102343;23;19999;-83
2021/10/21 00:36:03;;;;;;;4.55;2.50;;;16.00;99.90;;;16.77;96.62;98031.38;6101878;23;20010;-82
2021/10/21 00:38:29;;;;;;;6.03;3.00;;;15.90;99.90;;;16.77;98.09;98042.66;6107312;23;20002;-83
2021/10/21 00:40:55;;;;;;;4.03;2.53;;;15.80;99.90;;;16.70;99.51;98031.66;6103877;23;20038;-85
2021/10/21 00:43:23;;;;;;;8.85;2.72;;;15.70;99.90;;;16.53;100.00;98019.03;6100475;23;20085;-83
2021/10/21 00:45:50;;;;;;;5.20;2.75;;;15.60;99.90;;;16.45;100.00;98017.72;6073860;23;20007;-81
2021/10/21 00:48:15;;;;;;;4.72;2.63;;;15.50;99.90;;;16.29;100.00;98019.53;6101265;23;20329;-81
2021/10/21 00:50:42;;;;;;;5.18;2.80;;;15.30;99.90;;;16.30;100.00;98026.72;6077211;23;20038;-83
2021/10/21 00:53:13;;;;;;;5.50;2.78;;;15.20;99.90;;;16.21;100.00;98034.34;6077842;23;20138;-80
2021/10/21 00:55:40;;;;;;;6.53;3.38;;;15.10;99.90;;;16.03;100.00;98028.56;6104135;23;20074;-83
2021/10/21 00:58:11;;;;;;;11.45;3.45;;;15.00;99.90;;;15.78;100.00;98021.81;6080838;23;20053;-85
2021/10/21 01:00:37;;;;;;;7.80;3.25;;;14.90;99.90;;;15.89;100.00;97993.28;6081791;23;20022;-81
2021/10/21 01:03:04;;;;;;;4.25;2.75;;;14.90;99.90;;;15.78;100.00;97985.22;6104961;23;20399;-80
2021/10/21 01:05:30;;;;;;;8.02;3.20;;;14.80;99.90;;;15.76;100.00;97970.03;6107386;23;20015;-84
2021/10/21 01:07:56;;;;;;;9.38;3.63;;;14.80;99.90;;;15.66;100.00;97918.53;6110528;23;20069;-86
2021/10/21 01:10:22;;;;;;;7.78;3.05;;;14.70;99.90;;;15.68;100.00;97910.41;6103645;23;20011;-84
2021/10/21 01:12:48;;;;;;;6.82;3.35;;;14.70;99.90;;;15.65;100.00;97930.25;6078711;23;20014;-81
2021/10/21 01:15:26;;;;;;;5.95;3.33;;;14.80;99.90;;;15.72;100.00;97936.41;6076638;23;19998;-83
2021/10/21 01:17:55;;;;;;;5.88;2.70;;;14.70;99.90;;;15.73;100.00;97909.81;6076076;23;20014;-83
2021/10/21 01:20:25;;;;;;;6.03;3.13;;;14.70;99.90;;;15.76;100.00;97902.50;6075609;23;20010;-84
2021/10/21 01:22:51;;;;;;;4.25;2.17;;;14.80;99.90;;;15.83;100.00;97888.94;6098567;23;20014;-85
2021/10/21 01:25:18;;;;;;;4.28;2.45;;;14.90;99.90;;;15.90;100.00;97856.94;6050898;23;20093;-84
2021/10/21 01:27:48;;;;;;;3.28;2.33;;;14.90;99.90;;;15.92;100.00;97850.84;6074461;23;20400;-83
2021/10/21 01:30:28;;;;;;;4.20;2.28;;;15.00;99.90;;;15.93;100.00;97838.34;6105334;23;20004;-83
2021/10/21 01:32:56;;;;;;;5.30;2.55;;;15.00;99.90;;;15.89;100.00;97837.72;6118939;23;20081;-81
2021/10/21 01:35:24;;;;;;;4.13;2.22;;;15.00;99.90;;;15.86;100.00;97855.53;6054751;23;20038;-84
2021/10/21 01:37:51;;;;;;;4.35;2.33;;;14.90;99.90;;;15.88;100.00;97848.19;6101896;23;20061;-84
2021/10/21 01:40:20;;;;;;;2.67;1.80;;;14.90;99.90;;;15.91;100.00;97840.84;6100901;23;20020;-80
2021/10/21 01:42:47;;;;;;;4.90;1.88;;;15.00;99.90;;;15.94;100.00;97845.53;6102823;23;20010;-81
2021/10/21 01:45:31;;;;;;;3.28;1.73;;;15.10;99.90;;;16.00;100.00;97827.59;6103078;23;20440;-84
2021/10/21 01:48:00;;;;;;;12.27;2.40;;;15.00;99.90;;;15.90;100.00;97820.34;6055048;23;20098;-84
2021/10/21 01:50:30;;;;;;;2.67;1.70;;;15.00;99.90;;;16.00;100.00;97829.63;6029824;23;20015;-86
2021/10/21 01:52:57;;;;;;;2.55;1.40;;;15.10;99.90;;;15.95;100.00;97845.09;6052751;23;20053;-80
2021/10/21 01:55:24;;;;;;;5.10;1.73;;;15.10;99.90;;;16.06;99.98;97834.19;6102732;23;20002;-84
2021/10/21 01:57:51;;;;;;;2.75;1.30;;;15.10;99.90;;;16.06;99.93;97836.22;6077314;23;20076;-82
2021/10/21 02:00:25;;;;;;;3.50;1.30;;;15.10;99.90;;;16.01;98.29;97831.97;6077258;23;20002;-84
2021/10/21 02:02:51;;;;;;;4.00;1.63;;;15.00;99.90;;;15.99;97.46;97840.09;6103771;23;20010;-83
2021/10/21 02:05:20;;;;;;;4.05;1.63;;;15.00;99.90;;;15.98;95.01;97846.19;6054110;23;20011;-82
2021/10/21 02:07:47;;;;;;;2.88;1.67;;;15.00;99.90;;;15.93;89.91;97822.22;6054565;23;20102;-83
2021/10/21 02:10:19;;;;;;;3.53;1.13;;;15.00;99.90;;;15.87;88.55;97840.19;6053163;23;20010;-84
2021/10/21 02:12:47;;;;;;;2.40;1.13;;;15.00;99.90;;;15.74;86.13;97860.75;6077409;23;20328;-84
2021/10/21 02:15:13;;;;;;;1.67;0.82;;;14.80;99.90;;;15.69;82.20;97852.13;6103522;23;20013;-84
2021/10/21 02:17:39;;;;;;;3.95;1.40;;;14.90;99.90;;;15.66;81.50;97844.63;6075533;23;20350;-84
2021/10/21 02:20:09;;;;;;;4.03;0.82;;;14.80;99.90;;;15.60;80.34;97844.44;6101189;23;20054;-81
2021/10/21 02:22:37;;;;;;;2.20;0.82;;;14.60;99.90;;;15.48;78.87;97827.59;6077258;23;20007;-84
2021/10/21 02:25:05;;;;;;;2.20;0.77;;;14.60;99.90;;;15.52;79.15;97823.41;6102709;23;20035;-82
2021/10/21 02:27:31;;;;;;;3.85;0.90;;;14.50;99.90;;;15.40;79.31;97838.31;6103382;23;20006;-82
2021/10/21 02:29:57;;;;;;;1.33;0.60;;;14.50;99.90;;;15.29;76.87;97840.72;6077848;23;20360;-82
2021/10/21 02:32:23;;;;;;;5.38;1.17;;;14.40;99.90;;;15.24;73.33;97833.69;6103196;23;20006;-79
2021/10/21 02:34:49;;;;;;;10.20;0.93;;;14.50;99.90;;;15.19;71.58;97833.44;6102109;23;20116;-84
2021/10/21 02:37:15;;;;;;;2.35;0.80;;;14.50;99.90;;;15.04;71.78;97838.03;6078569;23;20002;-88
2021/10/21 02:39:41;;;;;;;8.07;1.27;;;14.30;99.90;;;15.07;71.18;97845.53;6119864;23;20013;-82
2021/10/21 02:42:07;;;;;;;7.20;1.00;;;14.20;99.90;;;14.86;71.43;97846.31;6119456;23;20013;-83
2021/10/21 02:44:32;;;;;;;5.10;0.90;;;14.00;99.90;;;14.81;70.83;97839.22;6092063;23;20037;-83
2021/10/21 02:46:58;;;;;;;3.90;1.20;;;14.00;99.90;;;14.78;71.09;97863.41;6104201;23;20011;-84
2021/10/21 02:49:25;;;;;;;5.80;1.05;;;14.00;99.90;;;14.78;71.40;97859.81;6100249;23;20069;-84
2021/10/21 02:51:52;;;;;;;2.50;0.63;;;14.00;99.90;;;14.78;71.03;97854.97;6075854;23;20072;-82
2021/10/21 02:54:18;;;;;;;3.92;0.60;;;14.00;99.90;;;14.80;70.83;97853.75;6100004;23;20060;-80
2021/10/21 02:56:43;;;;;;;8.20;0.98;;;13.90;99.90;;;14.86;70.90;97855.53;6073861;23;20010;-83
2021/10/21 02:59:09;;;;;;;3.97;0.65;;;13.90;99.90;;;14.83;70.73;97848.00;6099884;23;20036;-82
2021/10/21 03:01:35;;;;;;;6.63;0.73;;;13.90;99.90;;;14.82;71.29;97852.03;6100405;23;20340;-84
2021/10/21 03:04:01;;;;;;;3.67;0.77;;;13.90;99.90;;;14.83;72.25;97850.81;6101755;23;20017;-85
2021/10/21 03:06:27;;;;;;;6.95;1.10;;;13.90;99.90;;;14.75;71.88;97867.13;6110728;23;20010;-85
2021/10/21 03:08:54;;;;;;;9.10;1.13;;;13.80;99.90;;;14.63;75.10;97858.72;6105235;23;20007;-82
2021/10/21 03:11:20;;;;;;;3.28;1.27;;;13.70;99.90;;;14.45;75.91;97855.72;6099218;23;20014;-85
2021/10/21 03:13:46;;;;;;;3.22;0.70;;;13.60;99.90;;;14.43;76.94;97855.38;6099501;23;20317;-84
2021/10/21 03:16:12;;;;;;;3.10;0.80;;;13.50;99.90;;;14.44;75.93;97848.53;6099947;23;20077;-85
2021/10/21 03:18:39;;;;;;;6.50;1.23;;;13.50;99.90;;;14.38;75.65;97848.31;6074416;23;20041;-85
2021/10/21 03:21:05;;;;;;;4.22;1.27;;;13.40;99.90;;;14.42;75.06;97843.34;6098238;23;20089;-85
2021/10/21 03:23:31;;;;;;;6.80;1.17;;;13.50;99.90;;;14.47;74.82;97854.03;6098706;23;20013;-84
2021/10/21 03:25:57;;;;;;;2.40;0.90;;;13.50;99.90;;;14.48;75.12;97833.13;6098913;23;20390;-82
2021/10/21 03:28:23;;;;;;;5.85;0.75;;;13.60;99.90;;;14.51;74.07;97848.28;6074496;23;20053;-84
2021/10/21 03:30:49;;;;;;;5.38;1.00;;;13.70;99.90;;;14.66;73.63;97835.34;6077730;23;20017;-86
2021/10/21 03:33:15;;;;;;;5.03;0.70;;;13.70;99.90;;;14.65;74.10;97836.56;6102071;23;20009;-85
2021/10/21 03:35:41;;;;;;;3.83;0.90;;;13.80;99.90;;;14.46;75.32;97844.03;6101779;23;20002;-82
2021/10/21 03:38:07;;;;;;;9.90;1.15;;;13.70;99.90;;;14.55;76.52;97848.94;6074396;23;20380;-82
2021/10/21 03:40:34;;;;;;;3.17;0.57;;;13.60;99.90;;;14.48;77.02;97843.59;6074882;23;20467;-83
2021/10/21 03:43:00;;;;;;;6.28;0.98;;;13.50;99.90;;;14.32;80.43;97854.91;6074745;23;20014;-83
2021/10/21 03:45:26;;;;;;;1.98;0.70;;;13.40;99.90;;;14.06;83.31;97854.13;6097004;23;20045;-84
2021/10/21 03:47:52;;;;;;;6.25;0.90;;;13.20;99.90;;;13.76;86.05;97844.22;6098719;23;20388;-84
2021/10/21 03:50:18;;;;;;;6.93;1.10;;;13.00;99.90;;;13.58;88.81;97849.59;6100638;23;20008;-86
2021/10/21 03:52:44;;;;;;;5.32;0.95;;;12.80;99.90;;;13.51;90.04;97856.19;6074763;23;20007;-84
2021/10/21 03:55:10;;;;;;;5.78;1.65;;;12.70;99.90;;;13.18;92.29;97846.34;6100435;23;20011;-82
2021/10/21 03:57:36;;;;;;;5.72;1.10;;;12.40;99.90;;;13.17;92.75;97831.53;6101008;23;20006;-82
2021/10/21 04:00:07;;;;;;;6.20;1.23;;;12.30;99.90;;;13.18;92.08;97826.72;6050104;23;20010;-81
2021/10/21 04:02:39;;;;;;;5.50;0.80;;;12.30;99.90;;;13.09;90.97;97827.38;6051687;23;20014;-83
2021/10/21 04:05:07;;;;;;;7.35;0.90;;;12.30;99.90;;;13.31;89.13;97810.72;6098274;23;20009;-82
2021/10/21 04:07:34;;;;;;;7.50;1.17;;;12.30;99.90;;;13.47;86.41;97807.06;6049170;23;20463;-83
2021/10/21 04:10:02;;;;;;;8.70;1.30;;;12.50;99.90;;;13.65;85.32;97821.31;6072995;23;20085;-80
2021/10/21 04:12:28;;;;;;;6.40;1.55;;;12.60;99.90;;;13.69;84.90;97813.59;6049263;23;20018;-85
2021/10/21 04:14:55;;;;;;;5.13;1.52;;;12.70;99.90;;;13.67;84.38;97810.47;6072652;23;20260;-83
2021/10/21 04:17:21;;;;;;;4.80;0.82;;;12.80;99.90;;;13.71;82.36;97797.09;6096959;23;20392;-82
2021/10/21 04:19:47;;;;;;;4.55;0.80;;;12.80;99.90;;;13.83;81.54;97806.75;6074091;23;20006;-82
2021/10/21 04:22:13;;;;;;;2.85;0.90;;;12.90;99.90;;;13.86;82.94;97781.41;6098978;23;20033;-82
2021/10/21 04:24:39;;;;;;;7.40;0.80;;;13.00;99.90;;;13.78;83.30;97785.66;6098901;23;20037;-82
2021/10/21 04:27:05;;;;;;;2.97;0.88;;;13.00;99.90;;;13.87;82.30;97771.75;6100550;23;20377;-82
2021/10/21 04:29:31;;;;;;;3.25;0.60;;;13.00;99.90;;;13.92;79.78;97748.75;6097993;23;20021;-81
2021/10/21 04:31:56;;;;;;;4.40;1.13;;;13.00;99.90;;;14.06;80.13;97784.75;6098827;23;20097;-79
2021/10/21 04:34:22;;;;;;;3.35;0.68;;;13.10;99.90;;;14.10;79.60;97787.44;6099934;23;20352;-83
2021/10/21 04:36:50;;;;;;;5.88;0.90;;;13.10;99.90;;;13.95;80.55;97780.72;6101056;23;20292;-85
2021/10/21 04:39:16;;;;;;;1.88;0.65;;;13.10;99.90;;;13.91;81.15;97794.84;6102174;23;20006;-84
2021/10/21 04:41:42;;;;;;;4.93;0.80;;;13.00;99.90;;;13.80;82.51;97791.63;6102101;23;20332;-81
2021/10/21 04:44:08;;;;;;;3.65;1.05;;;13.00;99.90;;;13.77;84.49;97798.13;6074274;23;20461;-79
2021/10/21 04:46:34;;;;;;;2.83;0.90;;;12.90;99.90;;;13.44;84.46;97789.13;6099793;23;20010;-83
2021/10/21 04:49:00;;;;;;;4.05;1.00;;;12.80;99.90;;;13.52;85.67;97775.66;6097072;23;20448;-82
2021/10/21 04:51:25;;;;;;;3.13;0.80;;;12.70;99.90;;;13.55;84.06;97781.16;6098228;23;20428;-83
2021/10/21 04:53:51;;;;;;;2.55;0.85;;;12.60;99.90;;;13.54;83.94;97773.19;6097467;23;20003;-80
2021/10/21 04:56:17;;;;;;;3.70;0.73;;;12.70;99.90;;;13.66;80.23;97773.22;6098200;23;20002;-78
2021/10/21 04:58:43;;;;;;;2.72;0.80;;;12.70;99.90;;;13.86;79.46;97795.44;6097904;23;20010;-84
2021/10/21 05:01:10;;;;;;;1.73;1.00;;;12.90;99.90;;;14.01;78.83;97757.25;6095846;23;20075;-83
2021/10/21 05:03:35;;;;;;;3.60;0.55;;;13.00;99.90;;;13.93;79.16;97769.97;6095144;23;20010;-81
2021/10/21 05:06:01;;;;;;;2.15;0.52;;;13.00;99.90;;;13.97;79.34;97779.03;6071125;23;20029;-82
2021/10/21 05:08:27;;;;;;;9.73;1.05;;;13.10;99.90;;;14.02;79.40;97770.06;6096805;23;20010;-83
2021/10/21 05:10:53;;;;;;;1.70;0.60;;;13.10;99.90;;;14.05;79.34;97774.78;6096397;23;20061;-82
2021/10/21 05:13:19;;;;;;;1.42;0.60;;;13.00;99.90;;;13.86;79.44;97775.00;6094725;23;20085;-83
2021/10/21 05:15:45;;;;;;;2.90;0.43;;;13.00;99.90;;;13.84;80.04;97786.66;6097263;23;20013;-83
2021/10/21 05:18:11;;;;;;;4.07;0.60;;;13.00;99.90;;;13.85;81.24;97779.81;6097581;23;20006;-82
2021/10/21 05:20:38;;;;;;;3.63;0.80;;;13.00;99.90;;;13.82;82.64;97763.09;6097141;23;20002;-81
2021/10/21 05:23:05;;;;;;;4.35;0.85;;;12.90;99.90;;;13.61;85.67;97770.19;6097800;23;20069;-83
2021/10/21 05:25:31;;;;;;;4.03;0.57;;;12.80;99.90;;;13.33;88.90;97780.22;6072630;23;20093;-82
2021/10/21 05:27:57;;;;;;;3.97;0.75;;;12.60;99.90;;;13.19;89.87;97777.84;6073148;23;20053;-82
2021/10/21 05:30:24;;;;;;;4.35;0.63;;;12.40;99.90;;;13.23;89.88;97778.50;6072400;23;20062;-81
2021/10/21 05:32:50;;;;;;;4.10;0.45;;;12.40;99.90;;;13.11;90.65;97773.66;6098571;23;20003;-83
2021/10/21 05:35:16;;;;;;;2.97;0.40;;;12.30;99.90;;;13.15;90.19;97783.56;6098622;23;19999;-84
2021/10/21 05:37:41;;;;;;;0.90;0.38;;;12.30;99.90;;;13.17;90.32;97769.88;6072764;23;20014;-82
2021/10/21 05:40:08;;;;;;;3.10;0.88;;;12.40;99.90;;;13.02;91.73;97781.91;6096284;23;20011;-83
2021/10/21 05:42:34;;;;;;;5.55;0.95;;;12.30;99.90;;;12.95;93.58;97780.09;6098987;23;20014;-82
2021/10/21 05:45:00;;;;;;;1.25;0.40;;;12.20;99.90;;;12.91;94.12;97743.00;6102409;23;20077;-83
2021/10/21 05:47:26;;;;;;;2.67;0.60;;;12.10;99.90;;;12.83;96.00;97794.06;6081248;23;20033;-80
2021/10/21 05:49:52;;;;;;;2.15;0.63;;;12.00;99.90;;;12.91;95.46;97789.81;6099675;23;20483;-82
2021/10/21 05:52:25;;;;;;;2.38;0.60;;;12.00;99.90;;;12.87;95.59;97781.53;6072904;23;20021;-80
2021/10/21 05:54:53;;;;;;;0.82;0.35;;;12.00;99.90;;;12.82;95.82;97779.25;6077532;23;20010;-84
2021/10/21 05:57:20;;;;;;;1.15;0.57;;;11.90;99.90;;;12.82;95.71;97761.66;6053206;23;20097;-80
2021/10/21 05:59:46;;;;;;;1.75;0.70;;;12.00;99.90;;;12.88;95.79;97759.91;6076313;23;20010;-84
2021/10/21 06:02:11;;;;;;;1.13;0.60;;;11.90;99.90;;;12.78;95.79;97761.75;6101645;23;20022;-79
2021/10/21 06:04:37;;;;;;;2.65;0.73;;;11.90;99.90;;;12.77;94.10;97742.63;6101564;23;20021;-80
2021/10/21 06:07:04;;;;;;;1.25;0.50;;;12.00;99.90;;;12.92;92.61;97752.97;6102307;23;20017;-83
2021/10/21 06:09:31;;;;;;;1.00;0.70;;;12.10;99.90;;;13.02;92.76;97754.69;6100407;23;20015;-83
2021/10/21 06:11:56;;;;;;;2.40;0.70;;;12.10;99.90;;;13.00;91.52;97762.72;6074749;23;20037;-83
2021/10/21 06:14:23;;;;;;;2.90;0.90;;;12.20;99.90;;;12.93;92.73;97743.34;6099868;23;20428;-81
2021/10/21 06:16:49;;;;;;;2.92;0.95;;;12.10;99.90;;;13.00;93.98;97789.97;6099215;23;20006;-84
2021/10/21 06:19:16;;;;;;;0.95;0.60;;;12.10;99.90;;;12.53;98.55;97770.06;6098334;23;20022;-84
2021/10/21 06:21:46;;;;;;;2.90;0.65;;;11.90;99.90;;;12.53;100.00;97782.03;6075439;23;20372;-81
2021/10/21 06:24:14;;;;;;;1.42;0.55;;;11.80;99.90;;;12.26;100.00;97775.97;6051724;23;20021;-82
2021/10/21 06:26:40;;;;;;;2.17;0.75;;;11.60;99.90;;;12.13;100.00;97794.69;6102525;23;20072;-80
2021/10/21 06:29:06;;;;;;;2.65;0.88;;;11.40;99.90;;;12.06;100.00;97798.44;6101326;23;20138;-80
2021/10/21 06:31:32;;;;;;;0.60;0.50;;;11.30;99.90;;;12.04;100.00;97800.88;6074507;23;20391;-84
2021/10/21 06:33:58;;;;;;;5.32;0.90;;;11.20;99.90;;;12.03;100.00;97801.31;6099422;23;20120;-83
2021/10/21 06:36:26;;;;;;;2.53;0.77;;;11.20;99.90;;;11.94;100.00;97809.53;6097706;23;20018;-83
2021/10/21 06:38:52;;;;;;;2.08;0.70;;;11.20;99.90;;;11.99;100.00;97832.16;6103458;23;20013;-81
2021/10/21 06:41:18;;;;;;;1.17;0.65;;;11.20;99.90;;;12.06;100.00;97851.59;6102489;23;20018;-86
2021/10/21 06:43:44;;;;;;;2.22;0.80;;;11.20;99.90;;;11.98;100.00;97866.16;6073242;23;20010;-84
2021/10/21 06:46:10;;;;;;;3.72;1.05;;;11.10;99.90;;;12.03;100.00;97882.44;6097449;23;20448;-87
2021/10/21 06:48:36;;;;;;;1.92;1.45;;;11.10;99.90;;;12.03;100.00;97899.22;6098654;23;20010;-87
2021/10/21 06:51:02;;;;;;;2.97;1.63;;;11.10;99.90;;;12.04;100.00;97918.34;6072960;23;20010;-80
2021/10/21 06:53:29;;;;;;;4.75;3.25;;;11.10;99.90;;;12.13;100.00;97926.16;6098598;23;20030;-85
2021/10/21 06:55:55;;;;;;;5.97;4.15;;;11.10;99.90;;;12.14;100.00;97956.50;6076498;23;20073;-84
2021/10/21 06:58:21;;;;;;;6.13;4.00;;;11.10;99.90;;;12.12;100.00;97980.53;6077558;23;20372;-85
2021/10/21 07:00:48;;;;;;;9.07;4.75;;;11.10;99.90;;;12.05;100.00;97995.47;6076353;23;20071;-87
2021/10/21 07:03:15;;;;;;;7.45;6.07;;;11.10;99.90;;;12.08;100.00;98027.38;6076568;23;20113;-87
2021/10/21 07:05:44;;;;;;;7.47;5.25;;;11.10;99.90;;;12.14;100.00;98051.63;6075585;23;20037;-85
2021/10/21 07:08:12;;;;;;;5.75;3.63;;;11.10;99.90;;;12.14;100.00;98084.41;6100722;23;20049;-84
2021/10/21 07:10:40;;;;;;;6.38;3.00;;;11.10;99.90;;;12.13;100.00;98094.03;6099892;23;20033;-80
2021/10/21 07:13:07;;;;;;;7.68;3.28;;;11.20;99.90;;;12.10;100.00;98162.78;6077536;23;20011;-86
2021/10/21 07:15:34;;;;;;;5.13;2.90;;;11.20;99.90;;;11.98;100.00;98143.06;6098526;23;20089;-88
2021/10/21 07:18:02;;;;;;;5.68;1.15;;;11.20;99.90;;;11.87;100.00;98243.16;6073567;23;20013;-85
2021/10/21 07:20:29;;;;;;;1.63;0.65;;;11.10;99.90;;;11.72;100.00;98292.91;6074266;23;20038;-85
2021/10/21 07:22:55;;;;;;;1.92;0.43;;;11.00;99.90;;;11.55;100.00;98327.50;6099605;23;20013;-85
2021/10/21 07:25:27;;;;;;;2.72;0.50;;;10.80;99.90;;;11.50;100.00;98375.47;6101558;23;20021;-86
2021/10/21 07:27:58;;;;;;;3.78;0.50;;;10.70;99.90;;;11.24;100.00;98435.66;6100241;23;20463;-84
2021/10/21 07:30:28;;;;;;;4.47;0.28;;;10.50;99.90;;;11.27;100.00;98443.19;6076432;23;20037;-85
2021/10/21 07:32:57;;;;;;;1.75;0.20;;;10.40;99.90;;;11.08;100.00;98478.13;6077220;23;20026;-84
2021/10/21 07:35:25;;;;;;;3.45;0.35;;;10.30;99.90;;;11.05;100.00;98478.94;6101772;23;20026;-86
2021/10/21 07:37:50;;;;;;;0.63;0.43;;;10.20;99.90;;;11.06;100.00;98522.44;6085792;23;20034;-83
2021/10/21 07:40:17;;;;;;;3.03;0.60;;;10.10;99.90;;;11.05;100.00;98556.34;6091663;23;20017;-86
2021/10/21 07:42:44;;;;;;;13.60;2.08;;;10.10;99.90;;;10.95;100.00;98580.38;6103711;23;20065;-83
2021/10/21 07:45:11;;;;;;;10.00;2.42;;;10.10;99.90;;;11.12;100.00;98601.00;6104113;23;20041;-86
2021/10/21 07:47:40;;;;;;;4.25;1.58;;;10.10;99.90;;;11.14;100.00;98620.97;6101358;23;20010;-83
2021/10/21 07:50:08;;;;;;;4.00;1.60;;;10.20;99.90;;;11.06;100.00;98647.34;6080613;23;20013;-87
2021/10/21 07:52:38;;;;;;;7.70;1.52;;;10.10;99.90;;;11.05;100.00;98656.91;6105508;23;20011;-85
2021/10/21 07:55:09;;;;;;;2.88;0.90;;;10.10;99.90;;;11.07;100.00;98646.94;6079569;23;20019;-84
2021/10/21 07:57:36;;;;;;;1.45;0.63;;;10.10;99.90;;;11.16;100.00;98682.00;6108138;23;20061;-83
2021/10/21 08:00:05;;;;;;;3.55;0.85;;;10.10;99.90;;;11.14;100.00;98670.44;6113625;23;20013;-85
2021/10/21 08:02:31;;;;;;;4.55;0.90;;;10.10;99.90;;;11.13;100.00;98694.78;6105075;23;20014;-87
2021/10/21 08:04:58;;;;;;;4.28;0.65;;;10.10;99.90;;;11.09;100.00;98711.56;6087178;23;20348;-86
2021/10/21 08:07:24;;;;;;;3.13;0.70;;;10.20;99.90;;;11.14;100.00;98727.13;6114777;23;20011;-87
2021/10/21 08:09:50;;;;;;;5.57;1.30;;;10.20;99.90;;;11.27;100.00;98730.25;6104434;23;20013;-86
2021/10/21 08:12:16;;;;;;;5.07;1.50;;;10.30;99.90;;;11.40;100.00;98743.31;6105472;23;20010;-84
2021/10/21 08:14:42;;;;;;;6.88;2.33;;;10.40;99.90;;;11.42;100.00;98742.91;6100390;23;20336;-87
2021/10/21 08:17:08;;;;;;;5.13;1.73;;;10.40;99.90;;;11.41;100.00;98749.69;6080167;23;20002;-86
2021/10/21 08:19:34;;;;;;;6.32;1.60;;;10.50;99.90;;;11.48;100.00;98764.44;6079570;23;20013;-85
2021/10/21 08:22:01;;;;;;;8.57;1.83;;;10.60;99.90;;;11.54;100.00;98785.16;6076704;23;20010;-84
2021/10/21 08:24:27;;;;;;;7.85;1.95;;;10.60;99.90;;;11.61;100.00;98803.88;6076404;23;20310;-86
2021/10/21 08:26:54;;;;;;;13.45;2.60;;;10.60;99.90;;;11.51;100.00;98816.72;6101859;23;20011;-84
2021/10/21 08:29:23;;;;;;;10.38;2.08;;;10.60;99.90;;;11.51;100.00;98832.69;6075754;23;20045;-84
2021/10/21 08:32:03;;;;;;;10.82;2.10;;;10.60;99.90;;;11.48;100.00;98845.50;6080071;23;20425;-84
2021/10/21 08:34:35;;;;;;;10.02;1.70;;;10.60;99.90;;;11.48;100.00;98853.06;6083232;23;20056;-85
2021/10/21 08:37:03;;;;;;;11.25;2.50;;;10.60;99.90;;;11.52;100.00;98885.41;6109502;23;20421;-85
2021/10/21 08:39:30;;;;;;;9.30;1.98;;;10.60;99.90;;;11.44;100.00;98902.59;6111050;23;20007;-84
2021/10/21 08:41:56;;;;;;;8.90;1.83;;;10.50;99.90;;;11.41;100.00;98883.84;6079116;23;20010;-86
2021/10/21 08:44:22;;;;;;;9.65;1.77;;;10.50;99.90;;;11.50;100.00;98912.16;6077142;23;20014;-85
2021/10/21 08:46:53;;;;;;;9.05;2.17;;;10.50;99.90;;;11.42;100.00;98905.81;6076090;23;20018;-85
2021/10/21 08:49:21;;;;;;;10.00;1.88;;;10.50;99.90;;;11.34;100.00;98901.44;6098761;23;20015;-84
2021/10/21 08:51:53;;;;;;;14.25;2.55;;;10.50;99.90;;;11.46;100.00;98923.34;6098853;23;20053;-85
2021/10/21 08:54:19;;;;;;;13.10;1.38;;;10.50;99.90;;;11.45;99.57;98929.38;6100655;23;20301;-83
2021/10/21 08:56:48;;;;;;;12.13;2.00;;;10.60;99.90;;;11.67;99.01;98950.44;6077690;23;20087;-85
2021/10/21 08:59:14;;;;;;;11.63;2.17;;;10.70;99.90;;;11.56;97.78;98930.09;6102641;23;20093;-84
2021/10/21 09:01:44;;;;;;;11.07;2.25;;;10.70;99.90;;;11.60;97.60;98961.66;6078452;23;20010;-85
2021/10/21 09:04:28;;;;;;;11.88;2.13;;;10.70;99.90;;;11.75;98.60;98963.22;6077140;23;20010;-86
2021/10/21 09:09:26;;;;;;;9.32;2.20;;;10.90;99.90;;;12.26;95.12;98956.16;6110892;23;20018;-85
2021/10/21 09:12:15;;;;;;;11.93;2.25;;;11.20;99.90;;;12.18;93.86;98963.78;6100192;23;20074;-86
2021/10/21 09:14:48;;;;;;;9.52;2.13;;;11.20;99.90;;;12.43;93.72;98972.81;6073869;23;20440;-86
2021/10/21 09:17:20;;;;;;;10.82;2.28;;;11.50;99.90;;;12.95;91.50;98979.19;6098531;23;20038;-85
2021/10/21 09:19:47;;;;;;;15.20;2.20;;;11.80;99.90;;;13.29;88.70;98986.91;6099148;23;20003;-85
2021/10/21 09:22:55;;;;;;;8.27;2.05;;;12.10;99.90;;;13.42;87.65;98983.13;6076586;23;20010;-85
2021/10/21 09:25:30;;;;;;;10.27;2.00;;;12.40;99.90;;;13.66;86.70;98992.50;6111681;23;20021;-85
2021/10/21 09:28:15;;;;;;;9.05;2.30;;;12.60;99.90;;;14.15;86.78;99005.91;6082015;23;20017;-84
2021/10/21 09:31:10;;;;;;;9.70;2.38;;;12.90;99.90;;;14.30;83.30;99026.16;6075820;23;20014;-84
2021/10/21 09:33:56;;;;;;;12.57;2.10;;;13.20;99.90;;;14.44;80.75;99017.56;6101673;23;20014;-84
2021/10/21 09:36:23;;;;;;;8.25;1.73;;;13.30;99.90;;;14.51;78.49;99022.28;6075355;23;20381;-86
2021/10/21 09:38:54;;;;;;;9.30;1.83;;;13.50;99.90;;;14.79;79.21;99030.28;6104678;23;20007;-84
2021/10/21 09:41:33;;;;;;;10.57;2.25;;;13.60;99.90;;;14.62;77.23;99048.19;6105327;23;20006;-85
2021/10/21 09:43:59;;;;;;;10.93;2.42;;;13.60;99.90;;;14.59;77.39;99040.63;6079126;23;20405;-83
2021/10/21 09:46:41;;;;;;;11.80;2.00;;;13.50;99.90;;;14.66;77.71;99058.19;6078554;23;20428;-84
2021/10/21 09:49:32;;;;;;;12.30;2.00;;;13.50;99.90;;;14.83;74.70;99053.50;6101081;23;20062;-83
2021/10/21 09:52:02;;;;;;;9.63;2.28;;;13.70;99.90;;;14.95;75.94;99078.22;6076398;23;20030;-86
2021/10/21 09:54:32;;;;;;;11.43;2.33;;;13.70;99.90;;;15.12;75.14;99079.16;6100783;23;20011;-85
2021/10/21 09:57:07;;;;;;;7.00;1.85;;;13.90;99.90;;;15.15;74.88;99079.09;6077981;23;20003;-87
2021/10/21 09:59:43;;;;;;;7.57;1.70;;;13.90;99.90;;;14.84;75.80;99083.19;6077424;23;20002;-85
2021/10/21 10:02:29;;;;;;;12.60;1.90;;;13.80;99.90;;;14.64;74.47;99079.50;6105426;23;19998;-85
2021/10/21 10:05:07;;;;;;;7.53;1.58;;;13.70;99.90;;;14.18;75.28;99106.16;6082376;23;20014;-85
2021/10/21 10:07:40;;;;;;;7.80;1.90;;;13.40;99.90;;;14.45;76.17;99092.16;6084193;23;20007;-87
2021/10/21 10:10:06;;;;;;;6.78;1.48;;;13.40;99.90;;;14.40;73.81;99115.13;6105901;23;20340;-86
2021/10/21 10:12:33;;;;;;;6.90;1.38;;;13.40;99.90;;;14.30;74.17;99093.56;6103281;23;20437;-83
2021/10/21 10:14:59;;;;;;;9.93;2.20;;;13.30;99.90;;;14.73;73.68;99091.81;6107084;23;20010;-83
2021/10/21 10:17:28;;;;;;;9.88;1.58;;;13.60;99.90;;;14.78;72.65;99107.38;6111056;23;20002;-81
2021/10/21 10:19:54;;;;;;;9.07;2.00;;;13.70;99.90;;;15.04;72.93;99111.41;6076137;23;20517;-85
2021/10/21 10:22:33;;;;;;;8.32;1.95;;;14.00;99.90;;;15.48;70.78;99124.38;6100511;23;20010;-83